Time;durP1;ratioP1;P1;durP2;ratioP2;P2;SDS_P1;SDS_P2;PMS_P1;PMS_P2;Temp;Humidity;BMP_temperature;BMP_pressure;BME280_temperature;BME280_humidity;BME280_pressure;Samples;Min_cycle;Max_cycle;Signal;HPM_P1;HPM_P2
2021/10/20 00:00:56;;;;;;;9.43;4.83;;;;;;;;;;5049821;28;20473;-67
2021/10/20 00:03:21;;;;;;;8.38;4.03;;;;;;;;;;5051999;28;20310;-66
2021/10/20 00:05:47;;;;;;;13.37;4.70;;;;;;;;;;5040108;28;20017;-66
2021/10/20 00:08:12;;;;;;;11.15;4.65;;;;;;;;;;5050628;28;20292;-66
2021/10/20 00:10:37;;;;;;;9.75;4.22;;;;;;;;;;5051429;28;20025;-65
2021/10/20 00:13:03;;;;;;;9.18;4.20;;;;;;;;;;5049447;28;20025;-67
2021/10/20 00:15:28;;;;;;;6.63;3.10;;;;;;;;;;5051884;28;20032;-66
2021/10/20 00:17:53;;;;;;;7.70;4.80;;;;;;;;;;5053125;28;20021;-67
2021/10/20 00:20:22;;;;;;;8.32;3.88;;;;;;;;;;5053990;28;20036;-66
2021/10/20 00:22:48;;;;;;;7.63;4.30;;;;;;;;;;5053538;28;20063;-66
2021/10/20 00:25:14;;;;;;;8.02;4.32;;;;;;;;;;5053736;28;20029;-64
2021/10/20 00:27:39;;;;;;;7.03;3.83;;;;;;;;;;5053703;28;20015;-64
2021/10/20 00:30:05;;;;;;;8.50;3.85;;;;;;;;;;5053102;28;20103;-67
2021/10/20 00:32:30;;;;;;;11.38;4.47;;;;;;;;;;5052723;28;20037;-66
2021/10/20 00:34:55;;;;;;;10.27;4.20;;;;;;;;;;5053060;28;20458;-66
2021/10/20 00:37:20;;;;;;;3.87;1.90;;;;;;;;;;5053256;28;20025;-64
2021/10/20 00:39:46;;;;;;;7.10;3.47;;;;;;;;;;5053182;28;20350;-64
2021/10/20 00:42:11;;;;;;;2.97;1.75;;;;;;;;;;5052611;28;20259;-65
2021/10/20 00:44:46;;;;;;;6.47;3.75;;;;;;;;;;5052937;28;20473;-64
2021/10/20 00:47:12;;;;;;;12.18;4.82;;;;;;;;;;5052220;28;20031;-65
2021/10/20 00:49:37;;;;;;;6.50;4.13;;;;;;;;;;5052473;28;20025;-64
2021/10/20 00:52:02;;;;;;;9.27;4.33;;;;;;;;;;5047702;28;20415;-65
2021/10/20 00:54:27;;;;;;;6.68;3.88;;;;;;;;;;5050696;28;20267;-65
2021/10/20 00:56:53;;;;;;;9.68;4.10;;;;;;;;;;5052825;28;20028;-65
2021/10/20 00:59:18;;;;;;;7.22;4.22;;;;;;;;;;5051735;28;20021;-64
2021/10/20 01:01:43;;;;;;;9.57;3.92;;;;;;;;;;5052538;28;20107;-70
2021/10/20 01:04:08;;;;;;;11.23;4.65;;;;;;;;;;5052415;28;20031;-64
2021/10/20 01:06:34;;;;;;;8.07;3.90;;;;;;;;;;5052948;28;20408;-64
2021/10/20 01:08:59;;;;;;;10.05;4.03;;;;;;;;;;5052673;28;20279;-69
2021/10/20 01:11:25;;;;;;;2.72;1.70;;;;;;;;;;5053737;28;20100;-64
2021/10/20 01:13:50;;;;;;;6.18;3.72;;;;;;;;;;5052567;28;20063;-64
2021/10/20 01:16:15;;;;;;;12.37;3.83;;;;;;;;;;5065011;28;20029;-66
2021/10/20 01:18:40;;;;;;;6.10;3.88;;;;;;;;;;5056234;28;20477;-67
2021/10/20 01:21:06;;;;;;;8.02;3.92;;;;;;;;;;5053304;28;20025;-65
2021/10/20 01:23:31;;;;;;;7.93;3.67;;;;;;;;;;5064018;28;20027;-66
2021/10/20 01:25:56;;;;;;;8.75;4.35;;;;;;;;;;5052562;28;20036;-66
2021/10/20 01:28:22;;;;;;;5.28;1.98;;;;;;;;;;5052339;28;20017;-66
2021/10/20 01:30:47;;;;;;;14.05;4.28;;;;;;;;;;5052064;28;20017;-66
2021/10/20 01:33:12;;;;;;;12.02;4.28;;;;;;;;;;5052052;28;20040;-66
2021/10/20 01:35:37;;;;;;;5.63;2.97;;;;;;;;;;5052405;28;20029;-65
2021/10/20 01:38:03;;;;;;;8.48;3.25;;;;;;;;;;5052277;28;20078;-66
2021/10/20 01:40:28;;;;;;;6.65;2.55;;;;;;;;;;5052118;28;20099;-66
2021/10/20 01:42:53;;;;;;;4.10;2.77;;;;;;;;;;5051658;28;20079;-67
2021/10/20 01:45:19;;;;;;;14.35;4.78;;;;;;;;;;5051780;28;20276;-65
2021/10/20 01:47:44;;;;;;;9.55;3.88;;;;;;;;;;5051748;28;20017;-68
2021/10/20 01:50:11;;;;;;;7.20;3.97;;;;;;;;;;5051721;28;20108;-66
2021/10/20 01:52:36;;;;;;;9.80;4.15;;;;;;;;;;5051826;28;20589;-66
2021/10/20 01:55:04;;;;;;;5.97;3.15;;;;;;;;;;5052060;28;20092;-66
2021/10/20 01:57:29;;;;;;;6.03;3.17;;;;;;;;;;5052021;28;20017;-66
2021/10/20 01:59:54;;;;;;;9.85;3.55;;;;;;;;;;5051258;28;20299;-66
2021/10/20 02:02:20;;;;;;;5.20;3.17;;;;;;;;;;5051341;28;20027;-65
2021/10/20 02:04:45;;;;;;;6.43;3.92;;;;;;;;;;5051613;28;20632;-66
2021/10/20 02:07:11;;;;;;;7.72;2.80;;;;;;;;;;5051369;28;20025;-66
2021/10/20 02:09:36;;;;;;;7.38;3.88;;;;;;;;;;5050526;28;20032;-65
2021/10/20 02:12:01;;;;;;;6.53;3.75;;;;;;;;;;5050944;28;20477;-66
2021/10/20 02:14:27;;;;;;;8.65;3.55;;;;;;;;;;5051029;28;20035;-67
2021/10/20 02:16:52;;;;;;;8.27;3.20;;;;;;;;;;5051299;28;20078;-66
2021/10/20 02:19:17;;;;;;;8.38;3.63;;;;;;;;;;5051225;28;20728;-66
2021/10/20 02:21:42;;;;;;;10.18;3.72;;;;;;;;;;5051195;28;20021;-65
2021/10/20 02:24:08;;;;;;;11.10;5.97;;;;;;;;;;5050619;28;20157;-65
2021/10/20 02:26:33;;;;;;;6.63;4.25;;;;;;;;;;5051205;28;20287;-64
2021/10/20 02:28:58;;;;;;;6.55;3.20;;;;;;;;;;5050954;28;20370;-66
2021/10/20 02:31:23;;;;;;;6.72;2.53;;;;;;;;;;5051249;28;20021;-64
2021/10/20 02:33:49;;;;;;;10.95;3.42;;;;;;;;;;5050834;28;20017;-64
2021/10/20 02:36:14;;;;;;;9.57;4.60;;;;;;;;;;5051151;28;20032;-64
2021/10/20 02:38:39;;;;;;;6.47;3.73;;;;;;;;;;5050786;28;20597;-65
2021/10/20 02:41:04;;;;;;;7.55;3.85;;;;;;;;;;5050753;28;20409;-67
2021/10/20 02:43:33;;;;;;;4.15;2.35;;;;;;;;;;5050407;28;20067;-67
2021/10/20 02:45:58;;;;;;;10.73;4.97;;;;;;;;;;5050603;28;20017;-66
2021/10/20 02:48:23;;;;;;;4.20;2.85;;;;;;;;;;5050215;28;20377;-65
2021/10/20 02:50:48;;;;;;;13.25;3.42;;;;;;;;;;5050486;28;20543;-66
2021/10/20 02:53:13;;;;;;;4.60;2.77;;;;;;;;;;5050538;28;20465;-66
2021/10/20 02:55:40;;;;;;;9.98;4.65;;;;;;;;;;5050742;28;20287;-67
2021/10/20 02:58:05;;;;;;;11.18;4.18;;;;;;;;;;5050197;28;20063;-67
2021/10/20 03:00:30;;;;;;;6.78;3.58;;;;;;;;;;5050703;28;20021;-66
2021/10/20 03:02:55;;;;;;;15.33;3.83;;;;;;;;;;5050249;28;20025;-65
2021/10/20 03:05:20;;;;;;;11.20;4.30;;;;;;;;;;5050644;28;20707;-66
2021/10/20 03:07:47;;;;;;;8.48;4.30;;;;;;;;;;5049468;28;20259;-66
2021/10/20 03:10:12;;;;;;;7.10;3.17;;;;;;;;;;5049335;28;20465;-66
2021/10/20 03:12:37;;;;;;;4.30;2.45;;;;;;;;;;5049539;28;20056;-65
2021/10/20 03:15:03;;;;;;;5.37;3.17;;;;;;;;;;5049776;28;20071;-66
2021/10/20 03:17:28;;;;;;;6.43;3.45;;;;;;;;;;5050279;28;20255;-65
2021/10/20 03:19:53;;;;;;;4.87;2.70;;;;;;;;;;5050491;28;20036;-66
2021/10/20 03:22:18;;;;;;;10.52;3.80;;;;;;;;;;5050285;28;20255;-66
2021/10/20 03:24:44;;;;;;;11.70;4.28;;;;;;;;;;5050235;28;20423;-66
2021/10/20 03:27:09;;;;;;;10.32;4.25;;;;;;;;;;5050027;28;20020;-66
2021/10/20 03:29:34;;;;;;;5.53;2.92;;;;;;;;;;5050076;28;20021;-67
2021/10/20 03:31:59;;;;;;;7.47;2.47;;;;;;;;;;5057383;28;20024;-66
2021/10/20 03:34:24;;;;;;;6.40;2.72;;;;;;;;;;5049831;28;20268;-64
2021/10/20 03:36:50;;;;;;;6.20;3.53;;;;;;;;;;5050378;28;20382;-67
2021/10/20 03:39:15;;;;;;;10.17;3.47;;;;;;;;;;5050175;28;20024;-67
2021/10/20 03:41:40;;;;;;;8.13;3.35;;;;;;;;;;5049578;28;20616;-64
2021/10/20 03:44:05;;;;;;;8.85;3.30;;;;;;;;;;5049888;28;20033;-64
2021/10/20 03:46:30;;;;;;;8.05;3.53;;;;;;;;;;5049944;28;20492;-65
2021/10/20 03:48:56;;;;;;;4.78;2.28;;;;;;;;;;5050163;28;20032;-64
2021/10/20 03:51:21;;;;;;;7.05;3.88;;;;;;;;;;5054098;28;20029;-66
2021/10/20 03:53:46;;;;;;;6.50;3.90;;;;;;;;;;5053694;28;20116;-64
2021/10/20 03:56:11;;;;;;;9.82;3.70;;;;;;;;;;5053733;28;20028;-65
2021/10/20 03:58:37;;;;;;;4.68;3.17;;;;;;;;;;5053834;28;20052;-64
2021/10/20 04:01:02;;;;;;;4.15;2.22;;;;;;;;;;5053219;28;20100;-64
2021/10/20 04:03:27;;;;;;;5.93;3.67;;;;;;;;;;5053428;28;20029;-64
2021/10/20 04:05:52;;;;;;;7.27;3.27;;;;;;;;;;5054354;28;20103;-64
2021/10/20 04:08:17;;;;;;;5.32;3.13;;;;;;;;;;5053801;28;20271;-64
2021/10/20 04:10:43;;;;;;;11.88;4.53;;;;;;;;;;5052782;28;20706;-65
2021/10/20 04:13:08;;;;;;;7.40;3.67;;;;;;;;;;5053319;28;20017;-65
2021/10/20 04:15:33;;;;;;;4.30;2.90;;;;;;;;;;5053590;28;20360;-64
2021/10/20 04:17:58;;;;;;;10.90;4.70;;;;;;;;;;5053561;28;20021;-66
2021/10/20 04:20:27;;;;;;;6.57;3.53;;;;;;;;;;5051724;28;20037;-64
2021/10/20 04:22:52;;;;;;;10.75;3.75;;;;;;;;;;5042508;28;20272;-65
2021/10/20 04:25:19;;;;;;;9.15;3.80;;;;;;;;;;5053166;28;20032;-64
2021/10/20 04:27:45;;;;;;;10.57;3.83;;;;;;;;;;5035447;28;20028;-64
2021/10/20 04:30:11;;;;;;;4.38;2.60;;;;;;;;;;5053461;28;20382;-64
2021/10/20 04:32:37;;;;;;;6.85;3.67;;;;;;;;;;5052871;28;20028;-65
2021/10/20 04:35:04;;;;;;;8.32;3.58;;;;;;;;;;5056137;28;20025;-64
2021/10/20 04:37:29;;;;;;;5.22;3.35;;;;;;;;;;5059286;28;20079;-65
2021/10/20 04:39:57;;;;;;;5.72;2.42;;;;;;;;;;5058723;28;20025;-65
2021/10/20 04:42:22;;;;;;;6.05;3.63;;;;;;;;;;5054371;28;20469;-64
2021/10/20 04:44:48;;;;;;;7.38;3.67;;;;;;;;;;5063629;28;20048;-64
2021/10/20 04:47:13;;;;;;;7.47;3.72;;;;;;;;;;5053165;28;20017;-66
2021/10/20 04:49:38;;;;;;;8.03;4.03;;;;;;;;;;5053085;28;20025;-64
2021/10/20 04:52:04;;;;;;;7.90;3.53;;;;;;;;;;5052158;28;20420;-66
2021/10/20 04:54:29;;;;;;;7.07;4.03;;;;;;;;;;5053109;28;20017;-67
2021/10/20 04:56:54;;;;;;;6.43;3.70;;;;;;;;;;5052725;28;20147;-64
2021/10/20 04:59:19;;;;;;;7.63;3.80;;;;;;;;;;5052563;28;20636;-67
2021/10/20 05:01:45;;;;;;;5.40;3.50;;;;;;;;;;5052260;28;20464;-65
2021/10/20 05:04:10;;;;;;;8.03;4.33;;;;;;;;;;5052390;28;20338;-65
2021/10/20 05:06:35;;;;;;;12.30;4.13;;;;;;;;;;5052639;28;20271;-64
2021/10/20 05:09:00;;;;;;;7.07;4.00;;;;;;;;;;5052326;28;20017;-65
2021/10/20 05:11:25;;;;;;;6.60;3.95;;;;;;;;;;5052361;28;20251;-66
2021/10/20 05:13:51;;;;;;;6.93;3.80;;;;;;;;;;5052148;28;20013;-66
2021/10/20 05:16:16;;;;;;;5.07;3.70;;;;;;;;;;5052318;28;20287;-66
2021/10/20 05:18:41;;;;;;;7.13;4.20;;;;;;;;;;5051398;28;20738;-66
2021/10/20 05:21:06;;;;;;;6.72;3.65;;;;;;;;;;5052105;28;20481;-65
2021/10/20 05:23:31;;;;;;;11.85;3.60;;;;;;;;;;5051929;28;20330;-66
2021/10/20 05:25:57;;;;;;;6.00;3.13;;;;;;;;;;5052192;28;20025;-67
2021/10/20 05:28:22;;;;;;;9.37;4.37;;;;;;;;;;5051826;28;20028;-67
2021/10/20 05:30:47;;;;;;;14.37;5.07;;;;;;;;;;5052035;28;20252;-67
2021/10/20 05:33:12;;;;;;;5.93;3.40;;;;;;;;;;5047325;28;20283;-65
2021/10/20 05:35:38;;;;;;;15.60;5.03;;;;;;;;;;5039015;28;20022;-66
2021/10/20 05:38:03;;;;;;;11.77;2.72;;;;;;;;;;5044704;28;20263;-65
2021/10/20 05:40:28;;;;;;;7.25;3.50;;;;;;;;;;5052244;28;20017;-67
2021/10/20 05:42:53;;;;;;;6.93;3.55;;;;;;;;;;5051591;28;20075;-65
2021/10/20 05:45:19;;;;;;;7.30;4.00;;;;;;;;;;5047030;28;20119;-67
2021/10/20 05:47:44;;;;;;;5.82;3.45;;;;;;;;;;5043772;28;20029;-64
2021/10/20 05:50:09;;;;;;;6.68;3.00;;;;;;;;;;5049509;28;20024;-64
2021/10/20 05:52:34;;;;;;;7.68;3.50;;;;;;;;;;5035882;28;20324;-65
2021/10/20 05:55:00;;;;;;;8.00;3.72;;;;;;;;;;5049370;28;20031;-65
2021/10/20 05:57:26;;;;;;;6.97;2.88;;;;;;;;;;5050021;28;20077;-64
2021/10/20 05:59:51;;;;;;;7.70;3.95;;;;;;;;;;5049309;28;20032;-64
2021/10/20 06:02:17;;;;;;;5.72;2.65;;;;;;;;;;5049128;28;20025;-65
2021/10/20 06:04:42;;;;;;;8.45;3.45;;;;;;;;;;5041038;28;20022;-66
2021/10/20 06:07:07;;;;;;;7.80;3.35;;;;;;;;;;5046859;28;20017;-65
2021/10/20 06:09:35;;;;;;;8.40;3.33;;;;;;;;;;5049341;28;20013;-64
2021/10/20 06:12:01;;;;;;;5.85;2.83;;;;;;;;;;5048024;28;20263;-65
2021/10/20 06:14:27;;;;;;;4.70;2.88;;;;;;;;;;5049304;28;20021;-64
2021/10/20 06:16:52;;;;;;;7.28;3.55;;;;;;;;;;5054290;28;20029;-65
2021/10/20 06:19:17;;;;;;;3.40;2.30;;;;;;;;;;5047670;28;20025;-66
2021/10/20 06:21:43;;;;;;;5.80;2.90;;;;;;;;;;5045767;28;20731;-66
2021/10/20 06:24:08;;;;;;;6.03;3.10;;;;;;;;;;5040587;28;20453;-68
2021/10/20 06:26:33;;;;;;;9.93;4.50;;;;;;;;;;5038519;28;20505;-64
2021/10/20 06:28:58;;;;;;;6.97;2.63;;;;;;;;;;5045221;28;20373;-65
2021/10/20 06:31:24;;;;;;;7.97;3.90;;;;;;;;;;5050391;28;20378;-64
2021/10/20 06:33:49;;;;;;;9.52;4.03;;;;;;;;;;5030892;28;20302;-65
2021/10/20 06:36:31;;;;;;;5.23;3.70;;;;;;;;;;5031216;28;20037;-63
2021/10/20 06:38:56;;;;;;;6.32;3.42;;;;;;;;;;5031063;28;20263;-64
2021/10/20 06:41:22;;;;;;;8.70;4.32;;;;;;;;;;5048998;28;20378;-64
2021/10/20 06:43:47;;;;;;;5.20;2.90;;;;;;;;;;5050601;28;20021;-65
2021/10/20 06:46:12;;;;;;;5.93;3.15;;;;;;;;;;5049964;28;20291;-66
2021/10/20 06:48:38;;;;;;;10.13;3.67;;;;;;;;;;5055506;28;20020;-66
2021/10/20 06:51:03;;;;;;;14.02;3.20;;;;;;;;;;5058741;28;20070;-66
2021/10/20 06:53:29;;;;;;;5.53;2.83;;;;;;;;;;5066614;28;20032;-66
2021/10/20 06:55:54;;;;;;;3.63;2.37;;;;;;;;;;5044448;28;20021;-66
2021/10/20 06:58:19;;;;;;;5.57;3.05;;;;;;;;;;5047432;28;20260;-64
2021/10/20 07:00:44;;;;;;;7.30;3.15;;;;;;;;;;5053701;28;20024;-65
2021/10/20 07:03:09;;;;;;;7.70;3.22;;;;;;;;;;5050906;28;20032;-64
2021/10/20 07:05:35;;;;;;;9.17;2.47;;;;;;;;;;5064076;28;20028;-64
2021/10/20 07:08:00;;;;;;;10.25;2.63;;;;;;;;;;5060894;28;20695;-66
2021/10/20 07:10:25;;;;;;;5.17;3.23;;;;;;;;;;5062499;28;20138;-67
2021/10/20 07:12:50;;;;;;;8.20;3.70;;;;;;;;;;5051910;28;20267;-66
2021/10/20 07:15:16;;;;;;;7.28;3.53;;;;;;;;;;5057698;28;20062;-67
2021/10/20 07:17:41;;;;;;;7.38;2.70;;;;;;;;;;5055222;28;20551;-67
2021/10/20 07:20:07;;;;;;;7.53;3.88;;;;;;;;;;5051526;28;20021;-64
2021/10/20 07:22:34;;;;;;;4.65;2.95;;;;;;;;;;5066006;28;20047;-64
2021/10/20 07:25:00;;;;;;;4.43;2.63;;;;;;;;;;5051992;28;20449;-64
2021/10/20 07:27:25;;;;;;;8.75;4.32;;;;;;;;;;5051417;28;20063;-66
2021/10/20 07:29:51;;;;;;;10.00;4.53;;;;;;;;;;5054249;28;20421;-64
2021/10/20 07:32:16;;;;;;;2.83;1.98;;;;;;;;;;5049864;28;20067;-64
2021/10/20 07:34:41;;;;;;;7.30;4.50;;;;;;;;;;5056429;28;20025;-65
2021/10/20 07:37:06;;;;;;;11.77;4.30;;;;;;;;;;5054507;28;20029;-64
2021/10/20 07:39:33;;;;;;;10.25;3.60;;;;;;;;;;5057741;28;20778;-67
2021/10/20 07:41:58;;;;;;;4.40;2.28;;;;;;;;;;5059386;28;20025;-65
2021/10/20 07:44:23;;;;;;;8.03;2.83;;;;;;;;;;5065592;28;20493;-65
2021/10/20 07:46:48;;;;;;;4.07;2.03;;;;;;;;;;5062416;28;20330;-65
2021/10/20 07:49:14;;;;;;;5.40;3.27;;;;;;;;;;5054302;28;20263;-66
2021/10/20 07:51:39;;;;;;;11.52;2.80;;;;;;;;;;5068113;28;20759;-64
2021/10/20 07:54:04;;;;;;;6.70;2.83;;;;;;;;;;5067649;28;20085;-64
2021/10/20 07:56:33;;;;;;;8.73;3.20;;;;;;;;;;5050413;28;20429;-66
2021/10/20 07:59:03;;;;;;;3.60;2.10;;;;;;;;;;5049812;28;20295;-64
2021/10/20 08:01:28;;;;;;;;;;;;;;;;;;5051616;28;20394;-65
2021/10/20 08:03:54;;;;;;;7.20;3.03;;;;;;;;;;5051979;28;20296;-64
2021/10/20 08:06:19;;;;;;;3.42;2.17;;;;;;;;;;5062948;28;20025;-64
2021/10/20 08:08:44;;;;;;;3.45;2.35;;;;;;;;;;5067311;28;20021;-65
2021/10/20 08:11:09;;;;;;;4.18;2.83;;;;;;;;;;5056532;28;20045;-64
2021/10/20 08:13:35;;;;;;;8.25;3.45;;;;;;;;;;5064419;28;20027;-66
2021/10/20 08:16:00;;;;;;;4.60;2.53;;;;;;;;;;5066886;28;20538;-66
2021/10/20 08:18:25;;;;;;;7.57;3.28;;;;;;;;;;5049472;28;20306;-66
2021/10/20 08:20:50;;;;;;;11.25;5.78;;;;;;;;;;5054776;28;20086;-66
2021/10/20 08:23:15;;;;;;;3.75;2.13;;;;;;;;;;5060222;28;20040;-66
2021/10/20 08:25:41;;;;;;;8.93;3.50;;;;;;;;;;5040730;28;20025;-66
2021/10/20 08:28:06;;;;;;;11.65;3.10;;;;;;;;;;5029943;28;20100;-66
2021/10/20 08:30:34;;;;;;;6.55;3.65;;;;;;;;;;5045322;28;20009;-64
2021/10/20 08:32:59;;;;;;;7.43;3.70;;;;;;;;;;5049182;28;20017;-64
2021/10/20 08:35:24;;;;;;;6.63;4.03;;;;;;;;;;5049437;28;20032;-66
2021/10/20 08:37:55;;;;;;;9.40;4.93;;;;;;;;;;5052992;28;20071;-63
2021/10/20 08:40:22;;;;;;;10.23;4.65;;;;;;;;;;5052925;28;20678;-63
2021/10/20 08:42:48;;;;;;;8.05;2.72;;;;;;;;;;5036426;28;20102;-65
2021/10/20 08:45:13;;;;;;;12.48;4.40;;;;;;;;;;5033081;28;20101;-65
2021/10/20 08:47:39;;;;;;;10.90;4.00;;;;;;;;;;5052830;28;20504;-65
2021/10/20 08:50:05;;;;;;;2.63;1.65;;;;;;;;;;5052735;28;20608;-65
2021/10/20 08:52:31;;;;;;;7.75;2.60;;;;;;;;;;5052422;28;20482;-66
2021/10/20 08:54:58;;;;;;;8.25;3.47;;;;;;;;;;5052620;28;20032;-65
2021/10/20 08:57:23;;;;;;;4.03;2.50;;;;;;;;;;5052160;28;20543;-65
2021/10/20 08:59:48;;;;;;;4.50;2.40;;;;;;;;;;5052818;28;20092;-66
2021/10/20 09:02:14;;;;;;;13.25;3.33;;;;;;;;;;5052115;28;20256;-65
2021/10/20 09:04:39;;;;;;;5.78;2.78;;;;;;;;;;5046554;28;20021;-65
2021/10/20 09:07:14;;;;;;;8.40;3.17;;;;;;;;;;5044943;28;20029;-66
2021/10/20 09:09:39;;;;;;;15.55;3.40;;;;;;;;;;5052902;28;20262;-64
2021/10/20 09:12:05;;;;;;;5.78;3.17;;;;;;;;;;5052158;28;20612;-65
2021/10/20 09:14:30;;;;;;;4.30;2.53;;;;;;;;;;5052710;28;20024;-65
2021/10/20 09:16:55;;;;;;;7.28;3.83;;;;;;;;;;5050673;28;20036;-65
2021/10/20 09:19:43;;;;;;;6.03;3.33;;;;;;;;;;5052478;28;20021;-65
2021/10/20 09:22:11;;;;;;;6.32;4.18;;;;;;;;;;5051646;28;20037;-65
2021/10/20 09:24:41;;;;;;;9.50;3.03;;;;;;;;;;5034273;28;20041;-65
2021/10/20 09:27:22;;;;;;;5.78;3.88;;;;;;;;;;5052250;28;20025;-65
2021/10/20 09:29:47;;;;;;;8.60;3.83;;;;;;;;;;5052338;28;20025;-65
2021/10/20 09:32:12;;;;;;;8.13;3.53;;;;;;;;;;5051938;28;20024;-65
2021/10/20 09:34:38;;;;;;;7.45;2.70;;;;;;;;;;5051191;28;20021;-64
2021/10/20 09:37:04;;;;;;;7.55;3.17;;;;;;;;;;5051749;28;20103;-65
2021/10/20 09:39:30;;;;;;;4.53;2.97;;;;;;;;;;5052316;28;20096;-65
2021/10/20 09:42:05;;;;;;;6.15;2.58;;;;;;;;;;5051815;28;20025;-63
2021/10/20 09:44:44;;;;;;;7.05;3.38;;;;;;;;;;5051567;28;20056;-64
2021/10/20 09:47:09;;;;;;;9.55;3.40;;;;;;;;;;5048951;28;20029;-64
2021/10/20 09:49:44;;;;;;;5.95;3.53;;;;;;;;;;5051469;28;20091;-64
2021/10/20 09:52:10;;;;;;;7.68;4.22;;;;;;;;;;5051510;28;20017;-65
2021/10/20 09:54:35;;;;;;;5.55;2.88;;;;;;;;;;5050204;28;20079;-63
2021/10/20 09:57:01;;;;;;;6.20;3.08;;;;;;;;;;5051418;28;20039;-64
2021/10/20 09:59:28;;;;;;;12.93;5.07;;;;;;;;;;5051589;28;20385;-66
2021/10/20 10:01:53;;;;;;;5.35;3.05;;;;;;;;;;5051055;28;20028;-67
2021/10/20 10:04:19;;;;;;;7.50;3.17;;;;;;;;;;5051447;28;20028;-65
2021/10/20 10:06:45;;;;;;;6.80;4.18;;;;;;;;;;5051222;28;20093;-65
2021/10/20 10:09:10;;;;;;;11.93;4.63;;;;;;;;;;5048432;28;20074;-66
2021/10/20 10:11:37;;;;;;;3.53;2.70;;;;;;;;;;5031864;28;20021;-66
2021/10/20 10:14:05;;;;;;;6.35;4.10;;;;;;;;;;5043383;28;20202;-67
2021/10/20 10:16:31;;;;;;;6.35;4.05;;;;;;;;;;5051487;28;20032;-64
2021/10/20 10:18:57;;;;;;;12.73;3.28;;;;;;;;;;5051490;28;20106;-64
2021/10/20 10:21:37;;;;;;;8.88;3.42;;;;;;;;;;5049757;28;20071;-64
2021/10/20 10:24:04;;;;;;;11.13;4.43;;;;;;;;;;5050756;28;20405;-64
2021/10/20 10:26:33;;;;;;;11.40;3.67;;;;;;;;;;5051178;28;20094;-63
2021/10/20 10:29:10;;;;;;;7.30;4.40;;;;;;;;;;5050905;28;20017;-67
2021/10/20 10:31:36;;;;;;;8.95;4.15;;;;;;;;;;5050468;28;20013;-66
2021/10/20 10:34:02;;;;;;;4.22;2.95;;;;;;;;;;5049797;28;20017;-64
2021/10/20 10:36:27;;;;;;;8.40;4.07;;;;;;;;;;5050515;28;20024;-65
2021/10/20 10:38:59;;;;;;;7.95;3.85;;;;;;;;;;5050889;28;20021;-66
2021/10/20 10:41:35;;;;;;;13.60;4.82;;;;;;;;;;5050869;28;20024;-64
2021/10/20 10:44:09;;;;;;;7.38;3.42;;;;;;;;;;5050252;28;20081;-66
2021/10/20 10:46:35;;;;;;;8.57;2.83;;;;;;;;;;5050377;28;20029;-65
2021/10/20 10:49:04;;;;;;;4.47;3.03;;;;;;;;;;5050594;28;20013;-65
2021/10/20 10:51:30;;;;;;;8.23;2.92;;;;;;;;;;5051002;28;20063;-64
2021/10/20 10:53:58;;;;;;;7.68;4.07;;;;;;;;;;5050690;28;20017;-64
2021/10/20 10:56:24;;;;;;;5.30;3.85;;;;;;;;;;5049263;28;20393;-64
2021/10/20 10:58:52;;;;;;;8.68;4.22;;;;;;;;;;5050191;28;20017;-65
2021/10/20 11:01:38;;;;;;;7.85;4.20;;;;;;;;;;5050632;28;20020;-63
2021/10/20 11:04:24;;;;;;;12.18;5.50;;;;;;;;;;5049882;28;20095;-63
2021/10/20 11:06:50;;;;;;;9.43;4.70;;;;;;;;;;5050390;28;20032;-64
2021/10/20 11:09:21;;;;;;;8.52;4.45;;;;;;;;;;5050857;28;20009;-66
2021/10/20 11:11:47;;;;;;;7.53;4.15;;;;;;;;;;5049979;28;20515;-64
2021/10/20 11:14:13;;;;;;;6.38;3.33;;;;;;;;;;5046011;28;20021;-67
2021/10/20 11:16:38;;;;;;;7.82;4.32;;;;;;;;;;5037382;28;20033;-66
2021/10/20 11:19:04;;;;;;;12.03;5.93;;;;;;;;;;5044207;28;20042;-65
2021/10/20 11:21:31;;;;;;;12.30;6.35;;;;;;;;;;5050524;28;20244;-65
2021/10/20 11:23:56;;;;;;;8.75;5.30;;;;;;;;;;5049295;28;20037;-67
2021/10/20 11:26:22;;;;;;;10.00;5.87;;;;;;;;;;5050258;28;20071;-67
2021/10/20 11:28:47;;;;;;;10.27;5.60;;;;;;;;;;5050161;28;20291;-66
2021/10/20 11:31:12;;;;;;;11.47;6.43;;;;;;;;;;5050182;28;20104;-64
2021/10/20 11:33:37;;;;;;;17.25;7.63;;;;;;;;;;5032415;28;20752;-65
2021/10/20 11:36:03;;;;;;;12.95;6.78;;;;;;;;;;5046009;28;20029;-64
2021/10/20 11:38:32;;;;;;;8.93;5.80;;;;;;;;;;5050352;28;20440;-66
2021/10/20 11:40:57;;;;;;;11.30;6.82;;;;;;;;;;5049915;28;20048;-67
2021/10/20 11:43:25;;;;;;;15.38;7.43;;;;;;;;;;5050045;28;20025;-66
2021/10/20 11:45:50;;;;;;;15.00;6.88;;;;;;;;;;5050154;28;20500;-66
2021/10/20 11:48:18;;;;;;;15.95;7.80;;;;;;;;;;5048787;28;20025;-66
2021/10/20 11:50:46;;;;;;;11.13;6.63;;;;;;;;;;5050400;28;20025;-66
2021/10/20 11:53:13;;;;;;;12.73;6.63;;;;;;;;;;5049561;28;20052;-64
2021/10/20 11:55:42;;;;;;;11.45;6.70;;;;;;;;;;5048377;28;20242;-64
2021/10/20 11:58:15;;;;;;;11.00;6.90;;;;;;;;;;5049784;28;20021;-64
2021/10/20 12:00:40;;;;;;;15.63;6.78;;;;;;;;;;5049697;28;20021;-64
2021/10/20 12:03:07;;;;;;;10.23;6.45;;;;;;;;;;5049503;28;20039;-64
2021/10/20 12:05:33;;;;;;;11.02;6.22;;;;;;;;;;5048394;28;20128;-66
2021/10/20 12:07:59;;;;;;;18.10;5.85;;;;;;;;;;5043949;28;20390;-65
2021/10/20 12:10:24;;;;;;;14.18;7.55;;;;;;;;;;5047416;28;20466;-64
2021/10/20 12:12:50;;;;;;;15.27;7.25;;;;;;;;;;5053395;28;20033;-64
2021/10/20 12:15:17;;;;;;;15.70;7.47;;;;;;;;;;5053380;28;20032;-65
2021/10/20 12:17:43;;;;;;;14.73;6.22;;;;;;;;;;5046285;28;20048;-64
2021/10/20 12:20:11;;;;;;;10.93;5.95;;;;;;;;;;5049259;28;20025;-64
2021/10/20 12:22:40;;;;;;;10.35;6.13;;;;;;;;;;5053043;28;20332;-64
2021/10/20 12:25:06;;;;;;;9.75;5.63;;;;;;;;;;5052131;28;20021;-64
2021/10/20 12:27:31;;;;;;;13.13;6.65;;;;;;;;;;5053594;28;20023;-66
2021/10/20 12:30:00;;;;;;;12.17;5.97;;;;;;;;;;5053339;28;20530;-66
2021/10/20 12:32:26;;;;;;;8.57;6.03;;;;;;;;;;5053180;28;20332;-66
2021/10/20 12:34:53;;;;;;;6.68;4.18;;;;;;;;;;5050402;28;20087;-65
2021/10/20 12:37:18;;;;;;;12.45;4.82;;;;;;;;;;5052316;28;20604;-65
2021/10/20 12:39:47;;;;;;;12.63;6.13;;;;;;;;;;5053138;28;20037;-67
2021/10/20 12:42:13;;;;;;;8.05;5.00;;;;;;;;;;5053130;28;20079;-66
2021/10/20 12:44:38;;;;;;;10.02;5.00;;;;;;;;;;5053010;28;20020;-66
2021/10/20 12:47:04;;;;;;;6.93;3.60;;;;;;;;;;5052696;28;20025;-67
2021/10/20 12:49:34;;;;;;;7.50;3.55;;;;;;;;;;5052810;28;20309;-66
2021/10/20 12:51:59;;;;;;;10.13;4.97;;;;;;;;;;5052974;28;20100;-66
2021/10/20 12:54:29;;;;;;;8.97;4.70;;;;;;;;;;5051858;28;20107;-65
2021/10/20 12:56:54;;;;;;;8.57;5.45;;;;;;;;;;5051138;28;20268;-66
2021/10/20 12:59:20;;;;;;;7.40;4.22;;;;;;;;;;5052276;28;20055;-66
2021/10/20 13:01:45;;;;;;;7.35;4.75;;;;;;;;;;5040085;28;20124;-64
2021/10/20 13:04:10;;;;;;;8.38;4.80;;;;;;;;;;5041316;28;20025;-65
2021/10/20 13:06:36;;;;;;;7.90;4.47;;;;;;;;;;5052810;28;20344;-64
2021/10/20 13:09:03;;;;;;;8.35;4.82;;;;;;;;;;5053172;28;20244;-64
2021/10/20 13:11:28;;;;;;;9.75;4.90;;;;;;;;;;5052562;28;20027;-64
2021/10/20 13:13:56;;;;;;;7.50;4.20;;;;;;;;;;5052283;28;20100;-67
2021/10/20 13:16:22;;;;;;;4.80;3.83;;;;;;;;;;5052531;28;20129;-64
2021/10/20 13:18:47;;;;;;;8.52;4.28;;;;;;;;;;5052443;28;20109;-64
2021/10/20 13:21:13;;;;;;;12.18;5.00;;;;;;;;;;5051905;28;20013;-64
2021/10/20 13:23:38;;;;;;;9.00;4.35;;;;;;;;;;5051820;28;20033;-65
2021/10/20 13:26:04;;;;;;;6.13;4.20;;;;;;;;;;5052008;28;20085;-66
2021/10/20 13:28:30;;;;;;;9.25;4.75;;;;;;;;;;5051965;28;20744;-66
2021/10/20 13:30:55;;;;;;;7.43;4.90;;;;;;;;;;5052291;28;20013;-66
2021/10/20 13:33:20;;;;;;;11.52;5.97;;;;;;;;;;5051743;28;20031;-65
2021/10/20 13:35:45;;;;;;;8.20;4.40;;;;;;;;;;5051077;28;20509;-64
2021/10/20 13:38:11;;;;;;;8.68;3.78;;;;;;;;;;5044369;28;20276;-66
2021/10/20 13:40:37;;;;;;;7.03;4.78;;;;;;;;;;5031996;28;20025;-65
2021/10/20 13:43:02;;;;;;;7.97;4.20;;;;;;;;;;5031738;28;20366;-66
2021/10/20 13:45:27;;;;;;;9.07;3.90;;;;;;;;;;5032921;28;20034;-65
2021/10/20 13:47:53;;;;;;;6.83;3.90;;;;;;;;;;5052471;28;20048;-66
2021/10/20 13:50:18;;;;;;;6.10;3.90;;;;;;;;;;5052015;28;20255;-67
2021/10/20 13:52:43;;;;;;;6.18;3.90;;;;;;;;;;5051679;28;20609;-66
2021/10/20 13:55:09;;;;;;;7.72;4.40;;;;;;;;;;5050173;28;20017;-64
2021/10/20 13:57:34;;;;;;;10.93;5.10;;;;;;;;;;5051507;28;20051;-63
2021/10/20 14:00:01;;;;;;;6.10;3.87;;;;;;;;;;5052102;28;20079;-64
2021/10/20 14:02:26;;;;;;;9.73;3.72;;;;;;;;;;5051261;28;20248;-63
2021/10/20 14:04:54;;;;;;;5.37;3.80;;;;;;;;;;5051805;28;20138;-64
2021/10/20 14:07:19;;;;;;;6.03;4.13;;;;;;;;;;5051272;28;20341;-66
2021/10/20 14:09:44;;;;;;;6.82;3.80;;;;;;;;;;5049827;28;20018;-64
2021/10/20 14:12:10;;;;;;;9.90;2.95;;;;;;;;;;5052483;28;20370;-64
2021/10/20 14:14:35;;;;;;;9.68;4.05;;;;;;;;;;5057226;28;20394;-64
2021/10/20 14:17:01;;;;;;;6.38;2.90;;;;;;;;;;5055552;28;20021;-64
2021/10/20 14:19:26;;;;;;;9.68;3.55;;;;;;;;;;5050859;28;20025;-65
2021/10/20 14:21:51;;;;;;;6.82;3.83;;;;;;;;;;5067062;28;20227;-66
2021/10/20 14:24:17;;;;;;;5.97;3.30;;;;;;;;;;5054467;28;20212;-65
2021/10/20 14:26:42;;;;;;;5.57;3.27;;;;;;;;;;5051129;28;20021;-65
2021/10/20 14:29:07;;;;;;;8.15;3.75;;;;;;;;;;5052913;28;20247;-65
2021/10/20 14:31:39;;;;;;;5.32;2.90;;;;;;;;;;5059897;28;20036;-66
2021/10/20 14:34:05;;;;;;;8.07;3.40;;;;;;;;;;5061575;28;20023;-66